This is the latest recevied weather packets stored in our database for station/object K7TSD. If no packets are shown the sender has not sent any weather packets the latest 10 day(s).
| Time | Temp. | Humidity | Pressure | Rain* | Wind** | Luminosity | Snow |
|---|---|---|---|---|---|---|---|
| 1777677016 | 15.56° C | 38% | 1016.8 hPa | 0 mm | - | 442 W/m² | - |
| 1777676714 | 15° C | 36% | 1016.9 hPa | 0 mm | - | 458 W/m² | - |
| 1777676412 | 15.56° C | 37% | 1016.7 hPa | 0 mm | - | 461 W/m² | - |
| 1777676109 | 15.56° C | 36% | 1017.2 hPa | 0 mm | - | 486 W/m² | - |
| 1777675804 | 15° C | 38% | 1016.9 hPa | 0 mm | - | 498 W/m² | - |
| 1777675502 | 15° C | 36% | 1017.2 hPa | 0 mm | - | 504 W/m² | - |
| 1777675199 | 15° C | 37% | 1017.1 hPa | 0 mm | - | 518 W/m² | - |
| 1777674895 | 15.56° C | 35% | 1017.1 hPa | 0 mm | - | 518 W/m² | - |
| 1777674591 | 15° C | 35% | 1017.2 hPa | 0 mm | - | 525 W/m² | - |
| 1777674289 | 15.56° C | 36% | 1016.8 hPa | 0 mm | - | 506 W/m² | - |
| 1777673985 | 15.56° C | 38% | 1016.8 hPa | 0 mm | - | 505 W/m² | - |
| 1777673682 | 15° C | 38% | 1017.1 hPa | 0 mm | - | 544 W/m² | - |
| 1777673380 | 15° C | 37% | 1016.9 hPa | 0 mm | - | 560 W/m² | - |
| 1777673077 | 15° C | 37% | 1017.2 hPa | 0 mm | - | 570 W/m² | - |
| 1777672772 | 15° C | 34% | 1017.3 hPa | 0 mm | - | 600 W/m² | - |
| 1777672470 | 15.56° C | 38% | 1016.8 hPa | 0 mm | - | 583 W/m² | - |
| 1777672165 | 15° C | 37% | 1016.9 hPa | 0 mm | - | 591 W/m² | - |
| 1777671861 | 15° C | 38% | 1017.1 hPa | 0 mm | - | 625 W/m² | - |
| 1777671556 | 15° C | 39% | 1017.2 hPa | 0 mm | - | 621 W/m² | - |
| 1777671254 | 15.56° C | 37% | 1017.2 hPa | 0 mm | - | 606 W/m² | - |
| 1777670949 | 15.56° C | 38% | 1017.2 hPa | 0 mm | - | 621 W/m² | - |
| 1777670646 | 15.56° C | 39% | 1017.2 hPa | 0 mm | - | 631 W/m² | - |
| 1777670343 | 15° C | 38% | 1017.3 hPa | 0 mm | - | 612 W/m² | - |
| 1777670040 | 15° C | 37% | 1017.3 hPa | 0 mm | - | 611 W/m² | - |
| 1777669738 | 15° C | 34% | 1017.5 hPa | 0 mm | - | 636 W/m² | - |
* Rain latest hour (hover to see other rain measurements)
** Current wind speed in m/s (hover to see current wind gust speed)